sensor_id;sensor_type;location;lat;lon;timestamp;temperature;humidity
38684;DHT22;24910;53.248;-6.134;2023-04-07T00:00:43;10.50;72.50
38684;DHT22;24910;53.248;-6.134;2023-04-07T00:03:12;10.60;72.60
38684;DHT22;24910;53.248;-6.134;2023-04-07T00:05:41;10.60;72.60
38684;DHT22;24910;53.248;-6.134;2023-04-07T00:08:11;10.50;72.50
38684;DHT22;24910;53.248;-6.134;2023-04-07T00:10:41;10.50;72.60
38684;DHT22;24910;53.248;-6.134;2023-04-07T00:13:10;10.50;72.60
38684;DHT22;24910;53.248;-6.134;2023-04-07T00:15:39;10.50;72.60
38684;DHT22;24910;53.248;-6.134;2023-04-07T00:18:08;10.50;72.50
38684;DHT22;24910;53.248;-6.134;2023-04-07T00:20:38;10.50;72.50
38684;DHT22;24910;53.248;-6.134;2023-04-07T00:23:07;10.40;72.50
38684;DHT22;24910;53.248;-6.134;2023-04-07T00:25:36;10.40;72.50
38684;DHT22;24910;53.248;-6.134;2023-04-07T00:28:07;10.40;72.50
38684;DHT22;24910;53.248;-6.134;2023-04-07T00:30:36;10.40;72.40
38684;DHT22;24910;53.248;-6.134;2023-04-07T00:33:05;10.40;72.40
38684;DHT22;24910;53.248;-6.134;2023-04-07T00:35:36;10.30;72.50
38684;DHT22;24910;53.248;-6.134;2023-04-07T00:38:05;10.30;72.60
38684;DHT22;24910;53.248;-6.134;2023-04-07T00:40:34;10.20;72.80
38684;DHT22;24910;53.248;-6.134;2023-04-07T00:43:03;10.20;73.00
38684;DHT22;24910;53.248;-6.134;2023-04-07T00:45:35;10.10;73.10
38684;DHT22;24910;53.248;-6.134;2023-04-07T00:48:05;10.10;73.10
38684;DHT22;24910;53.248;-6.134;2023-04-07T00:50:34;10.10;73.20
38684;DHT22;24910;53.248;-6.134;2023-04-07T00:53:03;10.10;73.20
38684;DHT22;24910;53.248;-6.134;2023-04-07T00:55:33;10.10;73.10
38684;DHT22;24910;53.248;-6.134;2023-04-07T00:58:02;10.10;73.20
38684;DHT22;24910;53.248;-6.134;2023-04-07T01:00:37;10.00;73.20
38684;DHT22;24910;53.248;-6.134;2023-04-07T01:03:11;9.90;73.30
38684;DHT22;24910;53.248;-6.134;2023-04-07T01:05:49;9.90;73.40
38684;DHT22;24910;53.248;-6.134;2023-04-07T01:08:23;9.80;73.40
38684;DHT22;24910;53.248;-6.134;2023-04-07T01:10:56;9.80;73.30
38684;DHT22;24910;53.248;-6.134;2023-04-07T01:13:35;9.80;73.30
38684;DHT22;24910;53.248;-6.134;2023-04-07T01:16:16;9.80;73.20
38684;DHT22;24910;53.248;-6.134;2023-04-07T01:18:53;9.80;73.20
38684;DHT22;24910;53.248;-6.134;2023-04-07T01:21:26;9.80;73.30
38684;DHT22;24910;53.248;-6.134;2023-04-07T01:24:33;9.70;73.40
38684;DHT22;24910;53.248;-6.134;2023-04-07T01:27:16;9.60;73.40
38684;DHT22;24910;53.248;-6.134;2023-04-07T01:29:48;9.60;73.40
38684;DHT22;24910;53.248;-6.134;2023-04-07T01:32:19;9.60;73.60
38684;DHT22;24910;53.248;-6.134;2023-04-07T01:34:49;9.60;73.60
38684;DHT22;24910;53.248;-6.134;2023-04-07T01:37:20;9.50;73.70
38684;DHT22;24910;53.248;-6.134;2023-04-07T01:39:49;9.50;73.90
38684;DHT22;24910;53.248;-6.134;2023-04-07T01:42:19;9.50;73.80
38684;DHT22;24910;53.248;-6.134;2023-04-07T01:44:50;9.50;73.90
38684;DHT22;24910;53.248;-6.134;2023-04-07T01:47:19;9.50;73.80
38684;DHT22;24910;53.248;-6.134;2023-04-07T01:49:49;9.40;73.80
38684;DHT22;24910;53.248;-6.134;2023-04-07T01:52:19;9.40;74.00
38684;DHT22;24910;53.248;-6.134;2023-04-07T01:54:49;9.30;73.90
38684;DHT22;24910;53.248;-6.134;2023-04-07T01:57:18;9.30;74.10
38684;DHT22;24910;53.248;-6.134;2023-04-07T01:59:52;9.30;74.20
38684;DHT22;24910;53.248;-6.134;2023-04-07T02:02:24;9.20;74.30
38684;DHT22;24910;53.248;-6.134;2023-04-07T02:04:54;9.20;75.20
38684;DHT22;24910;53.248;-6.134;2023-04-07T02:07:28;9.20;74.40
38684;DHT22;24910;53.248;-6.134;2023-04-07T02:10:02;9.20;74.40
38684;DHT22;24910;53.248;-6.134;2023-04-07T02:12:34;9.10;74.30
38684;DHT22;24910;53.248;-6.134;2023-04-07T02:15:14;9.10;75.20
38684;DHT22;24910;53.248;-6.134;2023-04-07T02:17:47;9.10;74.40
38684;DHT22;24910;53.248;-6.134;2023-04-07T02:20:19;9.00;74.40
38684;DHT22;24910;53.248;-6.134;2023-04-07T02:22:48;9.00;74.50
38684;DHT22;24910;53.248;-6.134;2023-04-07T02:25:22;8.90;74.50
38684;DHT22;24910;53.248;-6.134;2023-04-07T02:27:54;8.90;74.60
38684;DHT22;24910;53.248;-6.134;2023-04-07T02:30:25;8.90;74.60
38684;DHT22;24910;53.248;-6.134;2023-04-07T02:32:55;8.90;74.70
38684;DHT22;24910;53.248;-6.134;2023-04-07T02:35:25;8.80;74.70
38684;DHT22;24910;53.248;-6.134;2023-04-07T02:37:54;8.80;74.70
38684;DHT22;24910;53.248;-6.134;2023-04-07T02:40:23;8.80;74.90
38684;DHT22;24910;53.248;-6.134;2023-04-07T02:42:53;8.80;74.90
38684;DHT22;24910;53.248;-6.134;2023-04-07T02:45:22;8.80;75.00
38684;DHT22;24910;53.248;-6.134;2023-04-07T02:47:53;8.80;75.10
38684;DHT22;24910;53.248;-6.134;2023-04-07T02:50:22;8.80;75.10
38684;DHT22;24910;53.248;-6.134;2023-04-07T02:52:52;8.80;75.00
38684;DHT22;24910;53.248;-6.134;2023-04-07T02:55:21;8.80;75.00
38684;DHT22;24910;53.248;-6.134;2023-04-07T02:57:50;8.70;75.80
38684;DHT22;24910;53.248;-6.134;2023-04-07T03:00:40;8.70;75.10
38684;DHT22;24910;53.248;-6.134;2023-04-07T03:03:14;8.70;75.20
38684;DHT22;24910;53.248;-6.134;2023-04-07T03:05:57;8.70;75.30
38684;DHT22;24910;53.248;-6.134;2023-04-07T03:08:26;8.70;76.20
38684;DHT22;24910;53.248;-6.134;2023-04-07T03:10:55;8.70;75.30
38684;DHT22;24910;53.248;-6.134;2023-04-07T03:13:28;8.70;75.40
38684;DHT22;24910;53.248;-6.134;2023-04-07T03:15:58;8.60;75.30
38684;DHT22;24910;53.248;-6.134;2023-04-07T03:18:33;8.60;75.40
38684;DHT22;24910;53.248;-6.134;2023-04-07T03:21:02;8.60;75.50
38684;DHT22;24910;53.248;-6.134;2023-04-07T03:23:31;8.60;75.50
38684;DHT22;24910;53.248;-6.134;2023-04-07T03:26:00;8.60;75.60
38684;DHT22;24910;53.248;-6.134;2023-04-07T03:28:34;8.50;75.60
38684;DHT22;24910;53.248;-6.134;2023-04-07T03:31:03;8.60;75.70
38684;DHT22;24910;53.248;-6.134;2023-04-07T03:33:33;8.60;75.70
38684;DHT22;24910;53.248;-6.134;2023-04-07T03:36:03;8.60;75.60
38684;DHT22;24910;53.248;-6.134;2023-04-07T03:38:32;8.60;75.60
38684;DHT22;24910;53.248;-6.134;2023-04-07T03:41:04;8.60;75.60
38684;DHT22;24910;53.248;-6.134;2023-04-07T03:43:33;8.60;75.70
38684;DHT22;24910;53.248;-6.134;2023-04-07T03:46:02;8.60;75.70
38684;DHT22;24910;53.248;-6.134;2023-04-07T03:48:33;8.60;75.60
38684;DHT22;24910;53.248;-6.134;2023-04-07T03:51:06;8.60;75.60
38684;DHT22;24910;53.248;-6.134;2023-04-07T03:53:35;8.60;75.70
38684;DHT22;24910;53.248;-6.134;2023-04-07T03:56:15;8.50;75.70
38684;DHT22;24910;53.248;-6.134;2023-04-07T03:58:48;8.50;75.80
38684;DHT22;24910;53.248;-6.134;2023-04-07T04:01:25;8.50;75.80
38684;DHT22;24910;53.248;-6.134;2023-04-07T04:03:57;8.50;75.80
38684;DHT22;24910;53.248;-6.134;2023-04-07T04:06:29;8.50;76.00
38684;DHT22;24910;53.248;-6.134;2023-04-07T04:09:07;8.50;75.90
38684;DHT22;24910;53.248;-6.134;2023-04-07T04:11:42;8.40;75.90
38684;DHT22;24910;53.248;-6.134;2023-04-07T04:14:11;8.40;76.00
38684;DHT22;24910;53.248;-6.134;2023-04-07T04:16:42;8.40;75.90
38684;DHT22;24910;53.248;-6.134;2023-04-07T04:19:25;8.40;75.90
38684;DHT22;24910;53.248;-6.134;2023-04-07T04:21:57;8.40;76.00
38684;DHT22;24910;53.248;-6.134;2023-04-07T04:24:28;8.40;76.00
38684;DHT22;24910;53.248;-6.134;2023-04-07T04:27:01;8.40;76.00
38684;DHT22;24910;53.248;-6.134;2023-04-07T04:29:31;8.40;76.10
38684;DHT22;24910;53.248;-6.134;2023-04-07T04:32:02;8.40;76.20
38684;DHT22;24910;53.248;-6.134;2023-04-07T04:34:33;8.40;76.20
38684;DHT22;24910;53.248;-6.134;2023-04-07T04:37:02;8.40;76.20
38684;DHT22;24910;53.248;-6.134;2023-04-07T04:39:31;8.40;76.30
38684;DHT22;24910;53.248;-6.134;2023-04-07T04:42:01;8.40;76.30
38684;DHT22;24910;53.248;-6.134;2023-04-07T04:44:34;8.40;76.40
38684;DHT22;24910;53.248;-6.134;2023-04-07T04:47:05;8.40;76.50
38684;DHT22;24910;53.248;-6.134;2023-04-07T04:49:38;8.40;76.50
38684;DHT22;24910;53.248;-6.134;2023-04-07T04:52:07;8.40;76.50
38684;DHT22;24910;53.248;-6.134;2023-04-07T04:54:42;8.40;76.50
38684;DHT22;24910;53.248;-6.134;2023-04-07T04:57:11;8.40;76.30
38684;DHT22;24910;53.248;-6.134;2023-04-07T04:59:40;8.30;76.40
38684;DHT22;24910;53.248;-6.134;2023-04-07T05:02:10;8.30;76.50
38684;DHT22;24910;53.248;-6.134;2023-04-07T05:04:41;8.30;76.50
38684;DHT22;24910;53.248;-6.134;2023-04-07T05:07:23;8.30;76.60
38684;DHT22;24910;53.248;-6.134;2023-04-07T05:09:52;8.30;76.60
38684;DHT22;24910;53.248;-6.134;2023-04-07T05:12:22;8.20;76.70
38684;DHT22;24910;53.248;-6.134;2023-04-07T05:14:57;8.20;76.90
38684;DHT22;24910;53.248;-6.134;2023-04-07T05:17:26;8.20;76.90
38684;DHT22;24910;53.248;-6.134;2023-04-07T05:20:00;8.20;76.90
38684;DHT22;24910;53.248;-6.134;2023-04-07T05:22:36;8.20;76.90
38684;DHT22;24910;53.248;-6.134;2023-04-07T05:25:08;8.20;77.00
38684;DHT22;24910;53.248;-6.134;2023-04-07T05:27:39;8.10;77.00
38684;DHT22;24910;53.248;-6.134;2023-04-07T05:30:14;8.10;77.10
38684;DHT22;24910;53.248;-6.134;2023-04-07T05:32:44;8.10;77.20
38684;DHT22;24910;53.248;-6.134;2023-04-07T05:35:25;8.10;77.20
38684;DHT22;24910;53.248;-6.134;2023-04-07T05:37:56;8.10;77.10
38684;DHT22;24910;53.248;-6.134;2023-04-07T05:40:26;8.10;77.10
38684;DHT22;24910;53.248;-6.134;2023-04-07T05:42:59;8.10;77.00
38684;DHT22;24910;53.248;-6.134;2023-04-07T05:45:30;8.10;76.90
38684;DHT22;24910;53.248;-6.134;2023-04-07T05:47:59;8.10;76.80
38684;DHT22;24910;53.248;-6.134;2023-04-07T05:50:39;8.10;76.80
38684;DHT22;24910;53.248;-6.134;2023-04-07T05:53:12;8.10;76.80
38684;DHT22;24910;53.248;-6.134;2023-04-07T05:55:42;8.00;76.90
38684;DHT22;24910;53.248;-6.134;2023-04-07T05:58:19;8.00;76.90
38684;DHT22;24910;53.248;-6.134;2023-04-07T06:00:51;8.10;77.10
38684;DHT22;24910;53.248;-6.134;2023-04-07T06:03:21;8.00;77.10
38684;DHT22;24910;53.248;-6.134;2023-04-07T06:05:59;8.10;77.20
38684;DHT22;24910;53.248;-6.134;2023-04-07T06:08:29;8.10;77.30
38684;DHT22;24910;53.248;-6.134;2023-04-07T06:10:58;8.10;77.40
38684;DHT22;24910;53.248;-6.134;2023-04-07T06:13:28;8.10;77.50
38684;DHT22;24910;53.248;-6.134;2023-04-07T06:15:57;8.20;77.70
38684;DHT22;24910;53.248;-6.134;2023-04-07T06:18:26;8.20;77.80
38684;DHT22;24910;53.248;-6.134;2023-04-07T06:20:55;8.20;77.80
38684;DHT22;24910;53.248;-6.134;2023-04-07T06:23:27;8.30;77.90
38684;DHT22;24910;53.248;-6.134;2023-04-07T06:25:56;8.30;78.00
38684;DHT22;24910;53.248;-6.134;2023-04-07T06:28:25;8.30;78.00
38684;DHT22;24910;53.248;-6.134;2023-04-07T06:30:56;8.30;77.70
38684;DHT22;24910;53.248;-6.134;2023-04-07T06:33:26;8.40;77.80
38684;DHT22;24910;53.248;-6.134;2023-04-07T06:35:56;8.50;77.80
38684;DHT22;24910;53.248;-6.134;2023-04-07T06:38:27;8.40;77.80
38684;DHT22;24910;53.248;-6.134;2023-04-07T06:40:56;8.50;77.90
38684;DHT22;24910;53.248;-6.134;2023-04-07T06:43:25;8.50;78.00
38684;DHT22;24910;53.248;-6.134;2023-04-07T06:46:00;8.60;78.20
38684;DHT22;24910;53.248;-6.134;2023-04-07T06:48:29;8.70;78.30
38684;DHT22;24910;53.248;-6.134;2023-04-07T06:50:58;8.80;78.40
38684;DHT22;24910;53.248;-6.134;2023-04-07T06:53:29;8.90;78.50
38684;DHT22;24910;53.248;-6.134;2023-04-07T06:56:05;9.00;78.60
38684;DHT22;24910;53.248;-6.134;2023-04-07T06:58:38;9.10;78.60
38684;DHT22;24910;53.248;-6.134;2023-04-07T07:01:07;9.10;78.50
38684;DHT22;24910;53.248;-6.134;2023-04-07T07:03:36;9.20;78.70
38684;DHT22;24910;53.248;-6.134;2023-04-07T07:06:05;9.30;78.70
38684;DHT22;24910;53.248;-6.134;2023-04-07T07:08:36;9.40;78.80
38684;DHT22;24910;53.248;-6.134;2023-04-07T07:11:05;9.50;78.80
38684;DHT22;24910;53.248;-6.134;2023-04-07T07:13:34;9.60;78.80
38684;DHT22;24910;53.248;-6.134;2023-04-07T07:16:04;9.70;78.70
38684;DHT22;24910;53.248;-6.134;2023-04-07T07:18:33;9.80;78.70
38684;DHT22;24910;53.248;-6.134;2023-04-07T07:21:03;9.90;78.60
38684;DHT22;24910;53.248;-6.134;2023-04-07T07:23:32;10.00;78.70
38684;DHT22;24910;53.248;-6.134;2023-04-07T07:26:03;10.00;78.60
38684;DHT22;24910;53.248;-6.134;2023-04-07T07:28:32;10.10;78.70
38684;DHT22;24910;53.248;-6.134;2023-04-07T07:31:08;10.10;78.70
38684;DHT22;24910;53.248;-6.134;2023-04-07T07:33:39;10.20;78.90
38684;DHT22;24910;53.248;-6.134;2023-04-07T07:36:11;10.30;78.90
38684;DHT22;24910;53.248;-6.134;2023-04-07T07:38:40;10.40;79.10
38684;DHT22;24910;53.248;-6.134;2023-04-07T07:41:10;10.60;79.30
38684;DHT22;24910;53.248;-6.134;2023-04-07T07:43:39;10.70;79.50
38684;DHT22;24910;53.248;-6.134;2023-04-07T07:46:08;10.90;79.70
38684;DHT22;24910;53.248;-6.134;2023-04-07T07:48:37;11.10;79.70
38684;DHT22;24910;53.248;-6.134;2023-04-07T07:51:07;11.20;79.70
38684;DHT22;24910;53.248;-6.134;2023-04-07T07:53:36;11.40;80.00
38684;DHT22;24910;53.248;-6.134;2023-04-07T07:56:05;11.50;80.10
38684;DHT22;24910;53.248;-6.134;2023-04-07T07:58:36;11.70;80.30
38684;DHT22;24910;53.248;-6.134;2023-04-07T08:01:05;11.70;80.40
38684;DHT22;24910;53.248;-6.134;2023-04-07T08:03:34;11.90;80.70
38684;DHT22;24910;53.248;-6.134;2023-04-07T08:06:04;12.10;80.70
38684;DHT22;24910;53.248;-6.134;2023-04-07T08:08:33;12.20;80.70
38684;DHT22;24910;53.248;-6.134;2023-04-07T08:11:02;12.30;80.30
38684;DHT22;24910;53.248;-6.134;2023-04-07T08:13:31;12.40;80.10
38684;DHT22;24910;53.248;-6.134;2023-04-07T08:16:01;12.50;79.90
38684;DHT22;24910;53.248;-6.134;2023-04-07T08:18:30;12.70;79.80
38684;DHT22;24910;53.248;-6.134;2023-04-07T08:20:59;12.80;79.80
38684;DHT22;24910;53.248;-6.134;2023-04-07T08:23:29;12.90;79.90
38684;DHT22;24910;53.248;-6.134;2023-04-07T08:25:58;13.10;80.10
38684;DHT22;24910;53.248;-6.134;2023-04-07T08:28:27;13.20;80.30
38684;DHT22;24910;53.248;-6.134;2023-04-07T08:30:56;13.30;80.40
38684;DHT22;24910;53.248;-6.134;2023-04-07T08:33:26;13.30;80.40
38684;DHT22;24910;53.248;-6.134;2023-04-07T08:35:55;13.40;80.50
38684;DHT22;24910;53.248;-6.134;2023-04-07T08:38:25;13.40;80.50
38684;DHT22;24910;53.248;-6.134;2023-04-07T08:40:59;13.50;80.50
38684;DHT22;24910;53.248;-6.134;2023-04-07T08:43:29;13.50;80.30
38684;DHT22;24910;53.248;-6.134;2023-04-07T08:45:59;13.60;80.40
38684;DHT22;24910;53.248;-6.134;2023-04-07T08:48:30;13.60;80.30
38684;DHT22;24910;53.248;-6.134;2023-04-07T08:51:04;13.70;80.40
38684;DHT22;24910;53.248;-6.134;2023-04-07T08:53:37;13.80;80.30
38684;DHT22;24910;53.248;-6.134;2023-04-07T08:56:10;13.90;80.10
38684;DHT22;24910;53.248;-6.134;2023-04-07T08:58:40;14.00;79.80
38684;DHT22;24910;53.248;-6.134;2023-04-07T09:01:09;14.00;79.50
38684;DHT22;24910;53.248;-6.134;2023-04-07T09:03:41;14.10;79.10
38684;DHT22;24910;53.248;-6.134;2023-04-07T09:06:12;14.10;78.70
38684;DHT22;24910;53.248;-6.134;2023-04-07T09:08:42;14.10;78.30
38684;DHT22;24910;53.248;-6.134;2023-04-07T09:11:11;14.10;77.80
38684;DHT22;24910;53.248;-6.134;2023-04-07T09:13:40;14.20;77.60
38684;DHT22;24910;53.248;-6.134;2023-04-07T09:16:11;14.20;77.50
38684;DHT22;24910;53.248;-6.134;2023-04-07T09:18:44;14.20;77.30
38684;DHT22;24910;53.248;-6.134;2023-04-07T09:21:13;14.20;77.20
38684;DHT22;24910;53.248;-6.134;2023-04-07T09:23:42;14.20;77.20
38684;DHT22;24910;53.248;-6.134;2023-04-07T09:26:19;14.10;77.20
38684;DHT22;24910;53.248;-6.134;2023-04-07T09:28:51;14.10;77.10
38684;DHT22;24910;53.248;-6.134;2023-04-07T09:31:22;14.20;77.30
38684;DHT22;24910;53.248;-6.134;2023-04-07T09:33:54;14.10;77.00
38684;DHT22;24910;53.248;-6.134;2023-04-07T09:36:24;14.10;76.80
38684;DHT22;24910;53.248;-6.134;2023-04-07T09:39:07;14.10;76.70
38684;DHT22;24910;53.248;-6.134;2023-04-07T09:41:36;14.10;76.20
38684;DHT22;24910;53.248;-6.134;2023-04-07T09:44:05;14.10;76.10
38684;DHT22;24910;53.248;-6.134;2023-04-07T09:46:34;14.10;76.10
38684;DHT22;24910;53.248;-6.134;2023-04-07T09:49:05;14.20;75.90
38684;DHT22;24910;53.248;-6.134;2023-04-07T09:51:35;14.20;75.60
38684;DHT22;24910;53.248;-6.134;2023-04-07T09:54:04;14.20;75.60
38684;DHT22;24910;53.248;-6.134;2023-04-07T09:56:35;14.30;75.60
38684;DHT22;24910;53.248;-6.134;2023-04-07T09:59:04;14.40;75.70
38684;DHT22;24910;53.248;-6.134;2023-04-07T10:01:34;14.40;75.80
38684;DHT22;24910;53.248;-6.134;2023-04-07T10:04:05;14.40;75.90
38684;DHT22;24910;53.248;-6.134;2023-04-07T10:06:34;14.40;76.20
38684;DHT22;24910;53.248;-6.134;2023-04-07T10:09:04;14.40;76.10
38684;DHT22;24910;53.248;-6.134;2023-04-07T10:11:33;14.50;76.00
38684;DHT22;24910;53.248;-6.134;2023-04-07T10:14:02;14.50;76.00
38684;DHT22;24910;53.248;-6.134;2023-04-07T10:16:32;14.50;75.80
38684;DHT22;24910;53.248;-6.134;2023-04-07T10:19:01;14.40;75.80
38684;DHT22;24910;53.248;-6.134;2023-04-07T10:21:32;14.30;75.80
38684;DHT22;24910;53.248;-6.134;2023-04-07T10:24:11;14.30;76.00
38684;DHT22;24910;53.248;-6.134;2023-04-07T10:26:50;14.30;76.20
38684;DHT22;24910;53.248;-6.134;2023-04-07T10:29:21;14.30;76.70
38684;DHT22;24910;53.248;-6.134;2023-04-07T10:31:52;14.30;77.00
38684;DHT22;24910;53.248;-6.134;2023-04-07T10:37:27;14.30;77.50
38684;DHT22;24910;53.248;-6.134;2023-04-07T10:40:28;14.30;77.50
38684;DHT22;24910;53.248;-6.134;2023-04-07T10:42:57;14.40;77.70
38684;DHT22;24910;53.248;-6.134;2023-04-07T10:45:52;14.50;77.60
38684;DHT22;24910;53.248;-6.134;2023-04-07T10:48:23;14.50;77.50
38684;DHT22;24910;53.248;-6.134;2023-04-07T10:51:18;14.60;77.50
38684;DHT22;24910;53.248;-6.134;2023-04-07T10:54:19;14.60;77.70
38684;DHT22;24910;53.248;-6.134;2023-04-07T10:57:19;14.60;77.90
38684;DHT22;24910;53.248;-6.134;2023-04-07T11:00:16;14.60;77.90
38684;DHT22;24910;53.248;-6.134;2023-04-07T11:02:45;14.70;77.70
38684;DHT22;24910;53.248;-6.134;2023-04-07T11:05:21;14.80;77.70
38684;DHT22;24910;53.248;-6.134;2023-04-07T11:07:52;14.90;77.70
38684;DHT22;24910;53.248;-6.134;2023-04-07T11:10:27;14.90;77.70
38684;DHT22;24910;53.248;-6.134;2023-04-07T11:13:00;14.80;77.70
38684;DHT22;24910;53.248;-6.134;2023-04-07T11:15:30;14.90;77.70
38684;DHT22;24910;53.248;-6.134;2023-04-07T11:20:54;15.00;77.50
38684;DHT22;24910;53.248;-6.134;2023-04-07T11:23:25;15.00;77.40
38684;DHT22;24910;53.248;-6.134;2023-04-07T11:26:01;14.90;77.30
38684;DHT22;24910;53.248;-6.134;2023-04-07T11:28:30;14.90;77.30
38684;DHT22;24910;53.248;-6.134;2023-04-07T11:30:59;14.90;77.20
38684;DHT22;24910;53.248;-6.134;2023-04-07T11:33:30;14.80;77.40
38684;DHT22;24910;53.248;-6.134;2023-04-07T11:36:02;14.80;77.60
38684;DHT22;24910;53.248;-6.134;2023-04-07T11:38:35;14.80;77.60
38684;DHT22;24910;53.248;-6.134;2023-04-07T11:41:11;14.80;77.70
38684;DHT22;24910;53.248;-6.134;2023-04-07T11:43:41;14.80;77.70
38684;DHT22;24910;53.248;-6.134;2023-04-07T11:46:12;14.90;77.80
38684;DHT22;24910;53.248;-6.134;2023-04-07T11:48:43;14.80;77.90
38684;DHT22;24910;53.248;-6.134;2023-04-07T11:51:15;14.80;77.80
38684;DHT22;24910;53.248;-6.134;2023-04-07T11:53:45;14.80;77.90
38684;DHT22;24910;53.248;-6.134;2023-04-07T11:56:16;14.70;78.00
38684;DHT22;24910;53.248;-6.134;2023-04-07T11:58:49;14.70;78.00
38684;DHT22;24910;53.248;-6.134;2023-04-07T12:01:18;14.80;78.10
38684;DHT22;24910;53.248;-6.134;2023-04-07T12:03:55;14.90;78.10
38684;DHT22;24910;53.248;-6.134;2023-04-07T12:06:26;14.90;77.30
38684;DHT22;24910;53.248;-6.134;2023-04-07T12:08:57;14.90;76.90
38684;DHT22;24910;53.248;-6.134;2023-04-07T12:11:27;14.90;76.70
38684;DHT22;24910;53.248;-6.134;2023-04-07T12:13:56;14.90;76.60
38684;DHT22;24910;53.248;-6.134;2023-04-07T12:16:25;14.80;76.50
38684;DHT22;24910;53.248;-6.134;2023-04-07T12:18:55;14.80;76.70
38684;DHT22;24910;53.248;-6.134;2023-04-07T12:21:25;14.80;77.00
38684;DHT22;24910;53.248;-6.134;2023-04-07T12:23:55;14.60;77.40
38684;DHT22;24910;53.248;-6.134;2023-04-07T12:26:24;14.50;77.80
38684;DHT22;24910;53.248;-6.134;2023-04-07T12:28:54;14.50;78.20
38684;DHT22;24910;53.248;-6.134;2023-04-07T12:31:25;14.30;78.40
38684;DHT22;24910;53.248;-6.134;2023-04-07T12:33:54;14.30;78.80
38684;DHT22;24910;53.248;-6.134;2023-04-07T12:36:23;14.30;78.90
38684;DHT22;24910;53.248;-6.134;2023-04-07T12:38:54;14.30;78.90
38684;DHT22;24910;53.248;-6.134;2023-04-07T12:41:23;14.30;78.30
38684;DHT22;24910;53.248;-6.134;2023-04-07T12:43:54;14.40;78.00
38684;DHT22;24910;53.248;-6.134;2023-04-07T12:46:23;14.60;77.90
38684;DHT22;24910;53.248;-6.134;2023-04-07T12:48:52;14.60;77.80
38684;DHT22;24910;53.248;-6.134;2023-04-07T12:51:22;14.60;78.00
38684;DHT22;24910;53.248;-6.134;2023-04-07T12:53:51;14.50;78.10
38684;DHT22;24910;53.248;-6.134;2023-04-07T12:56:21;14.50;78.10
38684;DHT22;24910;53.248;-6.134;2023-04-07T12:58:50;14.50;78.10
38684;DHT22;24910;53.248;-6.134;2023-04-07T13:01:21;14.50;78.10
38684;DHT22;24910;53.248;-6.134;2023-04-07T13:03:50;14.50;78.30
38684;DHT22;24910;53.248;-6.134;2023-04-07T13:06:20;14.60;76.90
38684;DHT22;24910;53.248;-6.134;2023-04-07T13:08:50;14.70;76.70
38684;DHT22;24910;53.248;-6.134;2023-04-07T13:11:19;14.80;76.60
38684;DHT22;24910;53.248;-6.134;2023-04-07T13:13:48;14.80;76.40
38684;DHT22;24910;53.248;-6.134;2023-04-07T13:16:17;14.80;76.00
38684;DHT22;24910;53.248;-6.134;2023-04-07T13:18:48;14.80;75.90
38684;DHT22;24910;53.248;-6.134;2023-04-07T13:21:17;14.80;76.20
38684;DHT22;24910;53.248;-6.134;2023-04-07T13:24:06;14.70;76.40
38684;DHT22;24910;53.248;-6.134;2023-04-07T13:26:35;14.60;76.70
38684;DHT22;24910;53.248;-6.134;2023-04-07T13:29:04;14.60;76.10
38684;DHT22;24910;53.248;-6.134;2023-04-07T13:31:36;14.60;75.40
38684;DHT22;24910;53.248;-6.134;2023-04-07T13:34:06;14.70;74.50
38684;DHT22;24910;53.248;-6.134;2023-04-07T13:36:35;14.70;74.70
38684;DHT22;24910;53.248;-6.134;2023-04-07T13:39:04;14.80;73.50
38684;DHT22;24910;53.248;-6.134;2023-04-07T13:41:34;14.80;73.90
38684;DHT22;24910;53.248;-6.134;2023-04-07T13:44:03;14.80;73.90
38684;DHT22;24910;53.248;-6.134;2023-04-07T13:46:32;14.80;73.40
38684;DHT22;24910;53.248;-6.134;2023-04-07T13:49:01;14.80;73.00
38684;DHT22;24910;53.248;-6.134;2023-04-07T13:51:31;14.80;72.60
38684;DHT22;24910;53.248;-6.134;2023-04-07T13:54:00;14.70;72.50
38684;DHT22;24910;53.248;-6.134;2023-04-07T13:56:29;14.80;72.70
38684;DHT22;24910;53.248;-6.134;2023-04-07T13:58:58;14.80;72.90
38684;DHT22;24910;53.248;-6.134;2023-04-07T14:01:28;14.80;72.90
38684;DHT22;24910;53.248;-6.134;2023-04-07T14:03:58;14.70;72.70
38684;DHT22;24910;53.248;-6.134;2023-04-07T14:06:28;14.70;72.90
38684;DHT22;24910;53.248;-6.134;2023-04-07T14:09:00;14.70;73.20
38684;DHT22;24910;53.248;-6.134;2023-04-07T14:11:31;14.60;73.20
38684;DHT22;24910;53.248;-6.134;2023-04-07T14:14:01;14.60;73.10
38684;DHT22;24910;53.248;-6.134;2023-04-07T14:16:30;14.50;73.00
38684;DHT22;24910;53.248;-6.134;2023-04-07T14:18:59;14.50;73.30
38684;DHT22;24910;53.248;-6.134;2023-04-07T14:21:29;14.50;73.70
38684;DHT22;24910;53.248;-6.134;2023-04-07T14:23:59;14.40;74.10
38684;DHT22;24910;53.248;-6.134;2023-04-07T14:26:28;14.40;74.60
38684;DHT22;24910;53.248;-6.134;2023-04-07T14:28:57;14.40;75.10
38684;DHT22;24910;53.248;-6.134;2023-04-07T14:31:27;14.40;75.70
38684;DHT22;24910;53.248;-6.134;2023-04-07T14:33:57;14.30;76.40
38684;DHT22;24910;53.248;-6.134;2023-04-07T14:36:26;14.20;77.00
38684;DHT22;24910;53.248;-6.134;2023-04-07T14:38:56;14.10;77.50
38684;DHT22;24910;53.248;-6.134;2023-04-07T14:41:26;14.00;78.00
38684;DHT22;24910;53.248;-6.134;2023-04-07T14:43:56;13.90;78.30
38684;DHT22;24910;53.248;-6.134;2023-04-07T14:46:25;13.90;78.40
38684;DHT22;24910;53.248;-6.134;2023-04-07T14:48:54;13.90;78.40
38684;DHT22;24910;53.248;-6.134;2023-04-07T14:51:24;13.90;78.60
38684;DHT22;24910;53.248;-6.134;2023-04-07T14:53:54;14.00;78.80
38684;DHT22;24910;53.248;-6.134;2023-04-07T14:56:25;14.00;78.70
38684;DHT22;24910;53.248;-6.134;2023-04-07T14:58:54;14.10;78.80
38684;DHT22;24910;53.248;-6.134;2023-04-07T15:01:24;14.10;79.00
38684;DHT22;24910;53.248;-6.134;2023-04-07T15:03:53;14.10;79.30
38684;DHT22;24910;53.248;-6.134;2023-04-07T15:06:22;14.00;79.40
38684;DHT22;24910;53.248;-6.134;2023-04-07T15:08:51;14.00;79.70
38684;DHT22;24910;53.248;-6.134;2023-04-07T15:11:20;13.90;79.60
38684;DHT22;24910;53.248;-6.134;2023-04-07T15:13:51;13.90;79.70
38684;DHT22;24910;53.248;-6.134;2023-04-07T15:16:20;13.90;79.60
38684;DHT22;24910;53.248;-6.134;2023-04-07T15:18:49;14.00;79.40
38684;DHT22;24910;53.248;-6.134;2023-04-07T15:21:18;14.00;79.00
38684;DHT22;24910;53.248;-6.134;2023-04-07T15:23:48;14.20;78.70
38684;DHT22;24910;53.248;-6.134;2023-04-07T15:26:17;14.30;78.20
38684;DHT22;24910;53.248;-6.134;2023-04-07T15:28:51;14.30;78.00
38684;DHT22;24910;53.248;-6.134;2023-04-07T15:31:20;14.30;78.20
38684;DHT22;24910;53.248;-6.134;2023-04-07T15:33:50;14.20;78.30
38684;DHT22;24910;53.248;-6.134;2023-04-07T15:36:19;14.10;78.50
38684;DHT22;24910;53.248;-6.134;2023-04-07T15:38:48;14.00;78.60
38684;DHT22;24910;53.248;-6.134;2023-04-07T15:41:17;14.00;78.50
38684;DHT22;24910;53.248;-6.134;2023-04-07T15:43:46;14.00;78.30
38684;DHT22;24910;53.248;-6.134;2023-04-07T15:46:17;14.00;77.90
38684;DHT22;24910;53.248;-6.134;2023-04-07T15:48:46;14.00;77.50
38684;DHT22;24910;53.248;-6.134;2023-04-07T15:51:15;14.00;77.40
38684;DHT22;24910;53.248;-6.134;2023-04-07T15:53:45;14.00;77.50